Time;durP1;ratioP1;P1;durP2;ratioP2;P2;SDS_P1;SDS_P2;PMS_P1;PMS_P2;Temp;Humidity;BMP_temperature;BMP_pressure;BME280_temperature;BME280_humidity;BME280_pressure;Samples;Min_cycle;Max_cycle;Signal;HPM_P1;HPM_P2
2023/05/13 00:01:59;;;;;;;1.52;1.17;;;;;;;;;;10245900;28;20040;-86
2023/05/13 00:07:04;;;;;;;1.58;1.20;;;;;;;;;;10245836;28;20412;-86
2023/05/13 00:12:08;;;;;;;2.72;1.25;;;;;;;;;;10220594;28;20071;-87
2023/05/13 00:17:12;;;;;;;2.33;1.30;;;;;;;;;;10246109;28;20309;-86
2023/05/13 00:22:16;;;;;;;2.83;1.23;;;;;;;;;;10235194;28;20061;-87
2023/05/13 00:27:20;;;;;;;4.43;1.40;;;;;;;;;;10235511;28;20046;-86
2023/05/13 00:32:23;;;;;;;1.50;1.40;;;;;;;;;;10235228;28;20054;-86
2023/05/13 00:37:28;;;;;;;5.50;1.38;;;;;;;;;;10251941;28;20035;-86
2023/05/13 00:42:31;;;;;;;3.10;1.40;;;;;;;;;;10234365;28;20066;-86
2023/05/13 00:47:35;;;;;;;3.70;1.50;;;;;;;;;;10235389;28;20122;-85
2023/05/13 00:52:41;;;;;;;1.63;1.20;;;;;;;;;;10234176;28;20039;-86
2023/05/13 00:57:44;;;;;;;;;;;;;;;;;;10235989;28;20118;-86
2023/05/13 01:02:55;;;;;;;1.38;0.98;;;;;;;;;;10240959;28;20383;-85
2023/05/13 01:08:16;;;;;;;2.38;1.20;;;;;;;;;;10233209;28;20075;-85
2023/05/13 01:13:23;;;;;;;2.78;1.30;;;;;;;;;;10230008;28;20047;-86
2023/05/13 01:18:33;;;;;;;2.00;1.10;;;;;;;;;;10234006;28;20074;-86
2023/05/13 01:23:37;;;;;;;2.03;0.90;;;;;;;;;;10233670;28;20473;-86
2023/05/13 01:28:41;;;;;;;2.95;1.33;;;;;;;;;;10232691;28;20043;-86
2023/05/13 01:33:45;;;;;;;1.38;1.20;;;;;;;;;;10233137;28;20516;-86
2023/05/13 01:38:51;;;;;;;2.13;1.35;;;;;;;;;;10232929;28;20047;-85
2023/05/13 01:43:56;;;;;;;2.22;1.40;;;;;;;;;;10232861;28;20192;-86
2023/05/13 01:48:59;;;;;;;1.70;1.17;;;;;;;;;;10232455;28;20043;-85
2023/05/13 01:54:05;;;;;;;1.25;1.15;;;;;;;;;;10232609;28;20047;-86
2023/05/13 01:59:11;;;;;;;1.20;1.10;;;;;;;;;;10227169;28;20039;-86
2023/05/13 02:04:15;;;;;;;1.20;1.10;;;;;;;;;;10245725;28;20043;-86
2023/05/13 02:09:20;;;;;;;1.95;1.33;;;;;;;;;;10231193;28;20674;-86
2023/05/13 02:14:23;;;;;;;1.35;1.25;;;;;;;;;;10231092;28;20039;-86
2023/05/13 02:19:27;;;;;;;1.40;1.30;;;;;;;;;;10230288;28;20138;-86
2023/05/13 02:24:34;;;;;;;2.70;1.30;;;;;;;;;;10230367;28;20473;-86
2023/05/13 02:29:37;;;;;;;1.98;1.55;;;;;;;;;;10241164;28;20043;-86
2023/05/13 02:34:40;;;;;;;1.38;1.27;;;;;;;;;;10236170;28;20095;-86
2023/05/13 02:39:45;;;;;;;1.95;1.23;;;;;;;;;;10236075;28;20047;-86
2023/05/13 02:44:49;;;;;;;1.80;0.90;;;;;;;;;;10236307;28;20444;-86
2023/05/13 02:49:54;;;;;;;3.33;1.10;;;;;;;;;;10230171;28;20054;-86
2023/05/13 02:54:59;;;;;;;1.42;1.23;;;;;;;;;;10229082;28;20632;-87
2023/05/13 03:00:03;;;;;;;1.95;1.08;;;;;;;;;;10244853;28;20043;-87
2023/05/13 03:05:08;;;;;;;1.20;1.10;;;;;;;;;;10245349;28;20537;-85
2023/05/13 03:10:13;;;;;;;2.08;1.30;;;;;;;;;;10245859;28;20133;-87
2023/05/13 03:15:17;;;;;;;1.38;1.25;;;;;;;;;;10229795;28;20131;-86
2023/05/13 03:20:20;;;;;;;1.33;1.20;;;;;;;;;;10229564;28;20047;-86
2023/05/13 03:25:25;;;;;;;2.00;1.17;;;;;;;;;;10229928;28;20054;-86
2023/05/13 03:30:33;;;;;;;9.90;1.45;;;;;;;;;;10242207;28;20039;-86
2023/05/13 03:35:43;;;;;;;1.40;1.10;;;;;;;;;;10231389;28;20044;-86
2023/05/13 03:40:48;;;;;;;1.42;1.33;;;;;;;;;;10229238;28;20110;-85
2023/05/13 03:45:52;;;;;;;1.13;1.03;;;;;;;;;;10236030;28;20039;-87
2023/05/13 03:50:58;;;;;;;1.30;1.20;;;;;;;;;;10227858;28;20036;-87
2023/05/13 03:56:03;;;;;;;2.35;1.20;;;;;;;;;;10237496;28;20118;-87
2023/05/13 04:01:07;;;;;;;3.13;1.60;;;;;;;;;;10229373;28;20035;-86
2023/05/13 04:06:12;;;;;;;1.17;1.00;;;;;;;;;;10230273;28;20044;-87
2023/05/13 04:11:17;;;;;;;1.85;1.35;;;;;;;;;;10231898;28;20039;-86
2023/05/13 04:16:21;;;;;;;1.35;1.08;;;;;;;;;;10236967;28;20094;-87
2023/05/13 04:21:24;;;;;;;1.58;1.10;;;;;;;;;;10236658;28;20047;-87
2023/05/13 04:26:29;;;;;;;1.60;1.50;;;;;;;;;;10238826;28;20119;-87
2023/05/13 04:31:32;;;;;;;2.10;1.30;;;;;;;;;;10245827;28;20404;-87
2023/05/13 04:36:36;;;;;;;1.50;1.40;;;;;;;;;;10236242;28;20054;-87
2023/05/13 04:41:41;;;;;;;1.17;1.00;;;;;;;;;;10241894;28;20046;-86
2023/05/13 04:46:44;;;;;;;3.08;1.00;;;;;;;;;;10253623;28;20039;-87
2023/05/13 04:51:48;;;;;;;1.60;1.10;;;;;;;;;;10235947;28;20094;-87
2023/05/13 04:56:53;;;;;;;2.28;1.50;;;;;;;;;;10235798;28;20039;-86
2023/05/13 05:01:56;;;;;;;1.42;1.33;;;;;;;;;;10237439;28;20121;-87
2023/05/13 05:07:00;;;;;;;1.58;1.40;;;;;;;;;;10240306;28;20039;-86
2023/05/13 05:12:06;;;;;;;2.13;1.58;;;;;;;;;;10256923;28;20057;-87
2023/05/13 05:17:11;;;;;;;1.40;1.25;;;;;;;;;;10241138;28;20047;-87
2023/05/13 05:22:14;;;;;;;2.70;1.20;;;;;;;;;;10229786;28;20043;-86
2023/05/13 05:27:19;;;;;;;1.52;1.17;;;;;;;;;;10259709;28;20045;-86
2023/05/13 05:32:22;;;;;;;4.93;1.30;;;;;;;;;;10246414;28;20047;-86
2023/05/13 05:37:26;;;;;;;1.88;1.42;;;;;;;;;;10242450;28;20051;-86
2023/05/13 05:42:31;;;;;;;1.50;1.40;;;;;;;;;;10244993;28;20130;-87
2023/05/13 05:47:34;;;;;;;4.60;1.20;;;;;;;;;;10244899;28;20119;-87
2023/05/13 05:52:38;;;;;;;1.77;1.30;;;;;;;;;;10233327;28;20039;-86
2023/05/13 05:57:43;;;;;;;1.60;1.50;;;;;;;;;;10242879;28;20038;-87
2023/05/13 06:02:47;;;;;;;1.38;1.27;;;;;;;;;;10258004;28;20564;-86
2023/05/13 06:07:51;;;;;;;2.72;1.30;;;;;;;;;;10232644;28;20039;-86
2023/05/13 06:12:56;;;;;;;3.08;1.40;;;;;;;;;;10229072;28;20067;-86
2023/05/13 06:18:00;;;;;;;2.35;1.77;;;;;;;;;;10230970;28;20050;-87
2023/05/13 06:23:04;;;;;;;2.72;1.73;;;;;;;;;;10230385;28;20067;-85
2023/05/13 06:28:10;;;;;;;1.77;1.67;;;;;;;;;;10250511;28;20476;-86
2023/05/13 06:33:14;;;;;;;1.90;1.67;;;;;;;;;;10248807;28;20073;-87
2023/05/13 06:38:17;;;;;;;2.00;1.80;;;;;;;;;;10231426;28;20063;-87
2023/05/13 06:43:23;;;;;;;2.05;1.52;;;;;;;;;;10235877;28;20044;-86
2023/05/13 06:48:32;;;;;;;3.00;1.52;;;;;;;;;;10247429;28;20223;-87
2023/05/13 06:53:36;;;;;;;1.50;1.25;;;;;;;;;;10230842;28;20035;-87
2023/05/13 06:58:40;;;;;;;1.65;1.50;;;;;;;;;;10233427;28;20066;-86
2023/05/13 07:03:44;;;;;;;1.50;1.40;;;;;;;;;;10237739;28;20142;-87
2023/05/13 07:08:47;;;;;;;1.40;1.17;;;;;;;;;;10247021;28;20039;-87
2023/05/13 07:13:52;;;;;;;1.45;1.30;;;;;;;;;;10234769;28;20047;-86
2023/05/13 07:18:56;;;;;;;3.67;1.45;;;;;;;;;;10241729;28;20043;-87
2023/05/13 07:24:01;;;;;;;3.63;2.10;;;;;;;;;;10252245;28;20050;-86
2023/05/13 07:29:06;;;;;;;3.20;1.42;;;;;;;;;;10255188;28;20416;-87
2023/05/13 07:34:09;;;;;;;1.48;1.38;;;;;;;;;;10242090;28;20047;-87
2023/05/13 07:39:12;;;;;;;1.23;1.10;;;;;;;;;;10220873;28;20043;-86
2023/05/13 07:44:18;;;;;;;1.25;1.02;;;;;;;;;;10240799;28;20051;-86
2023/05/13 07:49:21;;;;;;;1.87;1.20;;;;;;;;;;10227304;28;20047;-87
2023/05/13 07:54:25;;;;;;;1.13;1.02;;;;;;;;;;10257458;28;20039;-87
2023/05/13 07:59:29;;;;;;;2.55;1.17;;;;;;;;;;10245542;28;20130;-88
2023/05/13 08:04:33;;;;;;;1.42;1.33;;;;;;;;;;10249431;28;20126;-87
2023/05/13 08:09:36;;;;;;;1.13;1.02;;;;;;;;;;10230135;28;20163;-87
2023/05/13 08:14:43;;;;;;;2.28;1.02;;;;;;;;;;10219973;28;20601;-88
2023/05/13 08:19:51;;;;;;;1.17;1.07;;;;;;;;;;10242632;28;20043;-86
2023/05/13 08:24:58;;;;;;;3.03;0.90;;;;;;;;;;10241756;28;20232;-88
2023/05/13 08:30:03;;;;;;;1.92;1.00;;;;;;;;;;10222293;28;20054;-88
2023/05/13 08:35:07;;;;;;;3.72;1.23;;;;;;;;;;10229784;28;20058;-88
2023/05/13 08:40:11;;;;;;;1.83;1.50;;;;;;;;;;10228262;28;20070;-88
2023/05/13 08:45:16;;;;;;;0.93;0.90;;;;;;;;;;10249444;28;20046;-88
2023/05/13 08:50:21;;;;;;;1.30;0.93;;;;;;;;;;10237201;28;20053;-88
2023/05/13 08:55:24;;;;;;;2.33;1.08;;;;;;;;;;10249042;28;20051;-87
2023/05/13 09:00:29;;;;;;;1.30;1.20;;;;;;;;;;10248956;28;20461;-87
2023/05/13 09:05:33;;;;;;;1.15;1.00;;;;;;;;;;10236964;28;20053;-88
2023/05/13 09:10:38;;;;;;;2.05;1.13;;;;;;;;;;10229366;28;20043;-87
2023/05/13 09:15:44;;;;;;;1.45;1.00;;;;;;;;;;10246629;28;20035;-88
2023/05/13 09:20:47;;;;;;;1.40;0.82;;;;;;;;;;10227857;28;20043;-88
2023/05/13 09:25:51;;;;;;;1.88;1.15;;;;;;;;;;10245425;28;20047;-87
2023/05/13 09:30:56;;;;;;;1.30;1.15;;;;;;;;;;10235243;28;20531;-88
2023/05/13 09:35:59;;;;;;;1.23;1.10;;;;;;;;;;10245082;28;20453;-88
2023/05/13 09:41:03;;;;;;;0.90;0.90;;;;;;;;;;10229971;28;20058;-87
2023/05/13 09:46:10;;;;;;;0.98;0.90;;;;;;;;;;10222493;28;20146;-88
2023/05/13 09:51:15;;;;;;;1.27;1.10;;;;;;;;;;10229441;28;20039;-85
2023/05/13 09:56:22;;;;;;;1.13;0.90;;;;;;;;;;10246034;28;20509;-85
2023/05/13 10:01:29;;;;;;;0.95;0.80;;;;;;;;;;10228614;28;20094;-85
2023/05/13 10:06:33;;;;;;;1.35;1.00;;;;;;;;;;10228275;28;20458;-85
2023/05/13 10:11:37;;;;;;;1.25;1.00;;;;;;;;;;10227703;28;20043;-85
2023/05/13 10:16:42;;;;;;;1.60;0.90;;;;;;;;;;10228336;28;20047;-85
2023/05/13 10:21:47;;;;;;;1.30;0.88;;;;;;;;;;10246233;28;20500;-85
2023/05/13 10:26:52;;;;;;;1.42;0.82;;;;;;;;;;10228729;28;20074;-85
2023/05/13 10:31:58;;;;;;;1.13;0.80;;;;;;;;;;10232372;28;20051;-86
2023/05/13 10:37:26;;;;;;;1.58;1.00;;;;;;;;;;10246541;28;20512;-85
2023/05/13 10:42:41;;;;;;;0.90;0.90;;;;;;;;;;10224729;28;20043;-85
2023/05/13 10:47:51;;;;;;;1.30;1.10;;;;;;;;;;10227579;28;20062;-85
2023/05/13 10:52:57;;;;;;;1.30;1.15;;;;;;;;;;10244710;28;20065;-85
2023/05/13 10:58:14;;;;;;;4.80;1.90;;;;;;;;;;10241249;28;20035;-86
2023/05/13 11:20:20;;;;;;;1.15;1.05;;;;;;;;;;10980751;23;20049;-84
2023/05/13 11:31:56;;;;;;;1.58;1.17;;;;;;;;;;10058109;29;20048;-84
2023/05/13 11:37:10;;;;;;;1.30;1.08;;;;;;;;;;10054761;29;20049;-84
2023/05/13 11:42:14;;;;;;;2.13;1.15;;;;;;;;;;10060923;29;20128;-84
2023/05/13 11:47:27;;;;;;;1.30;0.85;;;;;;;;;;10052407;29;20049;-84
2023/05/13 11:52:32;;;;;;;1.83;1.20;;;;;;;;;;10052489;29;20048;-84
2023/05/13 11:57:35;;;;;;;1.13;1.00;;;;;;;;;;10065712;29;20049;-81
2023/05/13 12:02:39;;;;;;;3.38;1.17;;;;;;;;;;10070614;29;20061;-81
2023/05/13 12:07:46;;;;;;;1.70;1.10;;;;;;;;;;10072668;29;20080;-84
2023/05/13 12:12:50;;;;;;;1.27;1.00;;;;;;;;;;10071205;29;20045;-81
2023/05/13 12:17:54;;;;;;;1.02;0.93;;;;;;;;;;10065349;29;20044;-82
2023/05/13 12:23:01;;;;;;;1.48;1.17;;;;;;;;;;10085469;29;20049;-81
2023/05/13 12:28:10;;;;;;;1.75;0.95;;;;;;;;;;10068134;29;20069;-81
2023/05/13 12:33:16;;;;;;;1.70;1.40;;;;;;;;;;10073625;29;20049;-82
2023/05/13 12:38:22;;;;;;;2.33;1.20;;;;;;;;;;10089680;29;20049;-82
2023/05/13 12:43:26;;;;;;;1.10;0.90;;;;;;;;;;10083472;29;20072;-81
2023/05/13 12:48:32;;;;;;;1.30;1.20;;;;;;;;;;10069045;29;20044;-81
2023/05/13 12:53:37;;;;;;;1.05;0.98;;;;;;;;;;10067320;29;20051;-81
2023/05/13 12:58:40;;;;;;;1.30;0.80;;;;;;;;;;10072080;29;20045;-81
2023/05/13 13:03:46;;;;;;;0.90;0.73;;;;;;;;;;10066207;29;20049;-82
2023/05/13 13:08:51;;;;;;;1.30;0.80;;;;;;;;;;10083843;29;20049;-81
2023/05/13 13:13:54;;;;;;;2.80;1.33;;;;;;;;;;10066395;29;20128;-81
2023/05/13 13:18:59;;;;;;;2.00;0.90;;;;;;;;;;10070034;29;20104;-81
2023/05/13 13:24:05;;;;;;;0.65;0.60;;;;;;;;;;10064205;29;20128;-81
2023/05/13 13:29:08;;;;;;;1.07;0.87;;;;;;;;;;10071079;29;20044;-81
2023/05/13 13:34:12;;;;;;;1.83;0.85;;;;;;;;;;10066600;29;20053;-81
2023/05/13 13:39:17;;;;;;;1.92;0.80;;;;;;;;;;10069701;29;20037;-81
2023/05/13 13:44:20;;;;;;;1.38;0.80;;;;;;;;;;10064050;29;20053;-81
2023/05/13 13:49:24;;;;;;;2.70;1.13;;;;;;;;;;10067700;29;20477;-81
2023/05/13 13:54:29;;;;;;;2.17;1.38;;;;;;;;;;10062628;29;20113;-82
2023/05/13 13:59:32;;;;;;;2.20;1.50;;;;;;;;;;10064024;29;20073;-82
2023/05/13 14:04:35;;;;;;;4.28;1.08;;;;;;;;;;10075409;29;20056;-84
2023/05/13 14:09:40;;;;;;;2.20;0.90;;;;;;;;;;10069784;29;20544;-83
2023/05/13 14:14:44;;;;;;;1.80;0.50;;;;;;;;;;10080294;29;20056;-83
2023/05/13 14:19:50;;;;;;;1.40;0.80;;;;;;;;;;10062364;29;20071;-82
2023/05/13 14:24:55;;;;;;;1.17;0.70;;;;;;;;;;10063452;29;20068;-83
2023/05/13 14:29:59;;;;;;;0.30;0.30;;;;;;;;;;10072498;29;20041;-82
2023/05/13 14:35:02;;;;;;;0.50;0.50;;;;;;;;;;10063404;29;20045;-83
2023/05/13 14:40:09;;;;;;;0.60;0.60;;;;;;;;;;10064078;29;20182;-83
2023/05/13 14:45:13;;;;;;;0.95;0.82;;;;;;;;;;10066378;29;20416;-83
2023/05/13 14:50:18;;;;;;;1.05;0.82;;;;;;;;;;10063105;29;20073;-83
2023/05/13 14:55:22;;;;;;;1.45;0.90;;;;;;;;;;10080874;29;20194;-83
2023/05/13 15:00:26;;;;;;;0.85;0.80;;;;;;;;;;10053170;29;20136;-84
2023/05/13 15:05:29;;;;;;;1.58;0.90;;;;;;;;;;10076327;29;20057;-83
2023/05/13 15:10:34;;;;;;;1.42;0.90;;;;;;;;;;10077303;29;20045;-83
2023/05/13 15:15:39;;;;;;;1.00;0.90;;;;;;;;;;10063320;29;20055;-89
2023/05/13 15:20:46;;;;;;;0.60;0.60;;;;;;;;;;10068161;29;20117;-84
2023/05/13 15:25:51;;;;;;;1.83;1.27;;;;;;;;;;10061040;29;20056;-83
2023/05/13 15:31:00;;;;;;;0.93;0.77;;;;;;;;;;10046483;29;20045;-83
2023/05/13 15:36:04;;;;;;;1.83;0.93;;;;;;;;;;10044908;29;20504;-84
2023/05/13 15:41:09;;;;;;;0.60;0.60;;;;;;;;;;10067819;29;20033;-84
2023/05/13 15:46:12;;;;;;;0.65;0.55;;;;;;;;;;10068763;29;20077;-83
2023/05/13 15:51:17;;;;;;;2.53;0.65;;;;;;;;;;10081003;29;20045;-84
2023/05/13 15:56:22;;;;;;;0.80;0.60;;;;;;;;;;10069553;29;20537;-84
2023/05/13 16:01:25;;;;;;;0.70;0.60;;;;;;;;;;10087221;29;20048;-84
2023/05/13 16:06:29;;;;;;;0.60;0.60;;;;;;;;;;10069526;29;20080;-84
2023/05/13 16:11:33;;;;;;;0.57;0.57;;;;;;;;;;10084368;29;20447;-84
2023/05/13 16:16:37;;;;;;;0.50;0.50;;;;;;;;;;10067811;29;20060;-83
2023/05/13 16:21:41;;;;;;;0.50;0.40;;;;;;;;;;10067409;29;20512;-84
2023/05/13 16:26:46;;;;;;;1.00;0.70;;;;;;;;;;10068577;29;20521;-84
2023/05/13 16:31:49;;;;;;;0.68;0.68;;;;;;;;;;10066807;29;20051;-84
2023/05/13 16:36:56;;;;;;;0.98;0.80;;;;;;;;;;10067424;29;20163;-84
2023/05/13 16:42:02;;;;;;;1.23;0.60;;;;;;;;;;10067852;29;20033;-83
2023/05/13 16:47:08;;;;;;;2.35;0.65;;;;;;;;;;10067032;29;20057;-84
2023/05/13 16:52:11;;;;;;;1.17;0.60;;;;;;;;;;10083320;29;20037;-84
2023/05/13 16:57:17;;;;;;;0.50;0.50;;;;;;;;;;10086229;29;20109;-84
2023/05/13 17:02:20;;;;;;;0.40;0.40;;;;;;;;;;10083494;29;20055;-84
2023/05/13 17:07:26;;;;;;;0.68;0.60;;;;;;;;;;10546401;23;20361;-84
2023/05/13 17:12:31;;;;;;;0.85;0.70;;;;;;;;;;10065487;29;20057;-84
2023/05/13 17:17:35;;;;;;;0.60;0.60;;;;;;;;;;10066597;29;20523;-84
2023/05/13 17:22:38;;;;;;;0.75;0.70;;;;;;;;;;10083644;29;20056;-84
2023/05/13 17:27:46;;;;;;;1.42;0.55;;;;;;;;;;10083648;29;20544;-84
2023/05/13 17:32:49;;;;;;;0.63;0.63;;;;;;;;;;10066944;29;20053;-84
2023/05/13 17:37:52;;;;;;;0.60;0.57;;;;;;;;;;10066070;29;20535;-84
2023/05/13 17:43:01;;;;;;;0.82;0.60;;;;;;;;;;10064394;29;20040;-85
2023/05/13 17:48:06;;;;;;;0.50;0.50;;;;;;;;;;10060806;29;20105;-84
2023/05/13 17:53:09;;;;;;;2.25;0.90;;;;;;;;;;10082070;29;20045;-85
2023/05/13 17:58:14;;;;;;;0.63;0.63;;;;;;;;;;10064687;29;20505;-85
2023/05/13 18:03:20;;;;;;;0.73;0.60;;;;;;;;;;10064764;29;20063;-85
2023/05/13 18:08:23;;;;;;;1.05;0.60;;;;;;;;;;10067253;29;20045;-85
2023/05/13 18:13:28;;;;;;;2.33;0.75;;;;;;;;;;10079473;29;20132;-84
2023/05/13 18:18:32;;;;;;;1.30;0.60;;;;;;;;;;10063816;29;20132;-85
2023/05/13 18:23:35;;;;;;;0.65;0.60;;;;;;;;;;10063412;29;20132;-85
2023/05/13 18:28:43;;;;;;;0.43;0.43;;;;;;;;;;10080488;29;20053;-86
2023/05/13 18:33:46;;;;;;;0.63;0.52;;;;;;;;;;10065683;29;20136;-85
2023/05/13 18:38:50;;;;;;;3.58;0.73;;;;;;;;;;10064402;29;20053;-85
2023/05/13 18:43:55;;;;;;;0.80;0.80;;;;;;;;;;10062388;29;20049;-85
2023/05/13 18:48:59;;;;;;;1.25;1.08;;;;;;;;;;10063013;29;20045;-85
2023/05/13 18:54:03;;;;;;;0.98;0.60;;;;;;;;;;10062520;29;20052;-84
2023/05/13 18:59:07;;;;;;;1.52;0.80;;;;;;;;;;10062385;29;20064;-84
2023/05/13 19:04:12;;;;;;;0.70;0.70;;;;;;;;;;10061644;29;20056;-85
2023/05/13 19:09:15;;;;;;;1.10;0.93;;;;;;;;;;10079103;29;20052;-85
2023/05/13 19:14:20;;;;;;;1.00;0.90;;;;;;;;;;10060793;29;20424;-85
2023/05/13 19:19:23;;;;;;;0.80;0.80;;;;;;;;;;10077863;29;20556;-84
2023/05/13 19:24:27;;;;;;;1.80;1.02;;;;;;;;;;10061866;29;20505;-85
2023/05/13 19:29:31;;;;;;;1.55;1.10;;;;;;;;;;10061581;29;20060;-85
2023/05/13 19:34:35;;;;;;;0.93;0.88;;;;;;;;;;10062260;29;20049;-85
2023/05/13 19:39:38;;;;;;;1.15;1.05;;;;;;;;;;10079661;29;20072;-85
2023/05/13 19:44:43;;;;;;;1.75;1.20;;;;;;;;;;10062050;29;20055;-84
2023/05/13 19:49:46;;;;;;;2.17;1.20;;;;;;;;;;10055170;29;20343;-87
2023/05/13 19:54:50;;;;;;;1.52;1.38;;;;;;;;;;10064327;29;20144;-86
2023/05/13 19:59:55;;;;;;;2.38;1.65;;;;;;;;;;10084567;29;20521;-86
2023/05/13 20:04:58;;;;;;;1.98;1.60;;;;;;;;;;10072752;29;20085;-86
2023/05/13 20:10:03;;;;;;;2.35;1.77;;;;;;;;;;10089176;29;20040;-87
2023/05/13 20:15:09;;;;;;;2.38;1.58;;;;;;;;;;10068217;29;20088;-86
2023/05/13 20:20:14;;;;;;;1.92;1.55;;;;;;;;;;10065741;29;20135;-88
2023/05/13 20:25:18;;;;;;;1.40;1.30;;;;;;;;;;10067194;29;20602;-87
2023/05/13 20:30:22;;;;;;;3.17;1.25;;;;;;;;;;10066674;29;20060;-87
2023/05/13 20:35:27;;;;;;;1.23;1.13;;;;;;;;;;10067995;29;20324;-89
2023/05/13 20:40:31;;;;;;;1.80;1.58;;;;;;;;;;10071617;29;20125;-88
2023/05/13 20:45:38;;;;;;;2.25;1.50;;;;;;;;;;10072711;29;20037;-88
2023/05/13 20:50:41;;;;;;;1.85;1.67;;;;;;;;;;10070969;29;20092;-89
2023/05/13 20:55:45;;;;;;;2.28;1.52;;;;;;;;;;10071899;29;20059;-86
2023/05/13 21:00:49;;;;;;;1.70;1.33;;;;;;;;;;10087813;29;20606;-86
2023/05/13 21:05:53;;;;;;;2.40;1.25;;;;;;;;;;10070066;29;20521;-88
2023/05/13 21:10:56;;;;;;;3.72;1.92;;;;;;;;;;10072157;29;20055;-88
2023/05/13 21:16:04;;;;;;;1.60;1.50;;;;;;;;;;10082262;29;20077;-86
2023/05/13 21:21:11;;;;;;;2.45;1.70;;;;;;;;;;10070917;29;20531;-87
2023/05/13 21:26:14;;;;;;;3.15;1.77;;;;;;;;;;10072668;29;20424;-85
2023/05/13 21:31:19;;;;;;;3.45;1.73;;;;;;;;;;10074323;29;20512;-89
2023/05/13 21:36:23;;;;;;;2.75;2.08;;;;;;;;;;10065308;29;20061;-89
2023/05/13 21:41:27;;;;;;;2.42;1.85;;;;;;;;;;10066586;29;20041;-89
2023/05/13 21:46:32;;;;;;;1.85;1.63;;;;;;;;;;10070172;29;20131;-87
2023/05/13 21:51:36;;;;;;;1.58;1.45;;;;;;;;;;10057126;29;20053;-86
2023/05/13 21:56:40;;;;;;;1.80;1.38;;;;;;;;;;10069935;29;20041;-86
2023/05/13 22:01:44;;;;;;;2.53;1.45;;;;;;;;;;10060975;29;20053;-86
2023/05/13 22:06:48;;;;;;;1.38;1.27;;;;;;;;;;10064975;29;20052;-87
2023/05/13 22:11:52;;;;;;;2.88;1.33;;;;;;;;;;10077924;29;20814;-86
2023/05/13 22:16:56;;;;;;;3.63;1.38;;;;;;;;;;10066047;29;20064;-86
2023/05/13 22:22:09;;;;;;;2.08;1.77;;;;;;;;;;10061664;29;20051;-85
2023/05/13 22:27:18;;;;;;;1.40;1.30;;;;;;;;;;10061501;29;20056;-87
2023/05/13 22:32:26;;;;;;;1.33;1.23;;;;;;;;;;10058572;29;20041;-85
2023/05/13 22:37:30;;;;;;;1.40;1.27;;;;;;;;;;10079450;29;20468;-88
2023/05/13 22:42:34;;;;;;;1.80;1.40;;;;;;;;;;10057632;29;20128;-85
2023/05/13 22:47:38;;;;;;;2.58;1.70;;;;;;;;;;10077538;29;20048;-86
2023/05/13 22:52:42;;;;;;;1.63;1.50;;;;;;;;;;10055758;29;20065;-88
2023/05/13 22:57:45;;;;;;;1.85;1.40;;;;;;;;;;10072893;29;20136;-86
2023/05/13 23:02:50;;;;;;;2.03;1.55;;;;;;;;;;10079750;29;20057;-86
2023/05/13 23:07:53;;;;;;;2.53;1.52;;;;;;;;;;10019921;23;20150;-90
2023/05/13 23:12:57;;;;;;;3.45;1.50;;;;;;;;;;9981702;29;20050;-88
2023/05/13 23:18:02;;;;;;;3.05;1.35;;;;;;;;;;9990098;29;20050;-90
2023/05/13 23:23:06;;;;;;;1.33;1.23;;;;;;;;;;9985663;29;20046;-87
2023/05/13 23:28:09;;;;;;;2.28;1.70;;;;;;;;;;10006576;29;20601;-88
2023/05/13 23:33:14;;;;;;;1.67;1.42;;;;;;;;;;9996278;29;20114;-90
2023/05/13 23:38:18;;;;;;;1.40;1.25;;;;;;;;;;9991455;29;20069;-89
2023/05/13 23:43:21;;;;;;;1.75;1.23;;;;;;;;;;9989183;29;20125;-89
2023/05/13 23:48:29;;;;;;;1.50;1.35;;;;;;;;;;10006978;29;20120;-89
2023/05/13 23:53:33;;;;;;;2.25;1.58;;;;;;;;;;9992330;29;20034;-92
2023/05/13 23:58:37;;;;;;;1.90;1.38;;;;;;;;;;10004868;29;20046;-87
